Flight Track Log - Related Links

Times and Time Zones

All times are in EST time to prevent confusion due to time zone crossing. See the ASQ3839 flight status page for this flight to view local times or setup timezone preferences in your user account.

Time Position Orientation Groundspeed Altitude Reporting Facility
EST Latitude Longitude Course Direction KTS MPH feet Rate Location/Type
Thu 03:29:08 PM 40.7167 -74.1333 246° West 161 185 1,800  Level New York TRACON
Thu 03:30:08 PM 40.7667 -74.1167 14° North 231 266 3,000 1,700 Climbing New York TRACON
Thu 03:31:08 PM 40.7833 -74.2000 285° West 253 291 5,200 2,263 Climbing New York TRACON
Thu 03:32:00 PM 40.5367 -74.5933 250° West  Level FlightAware Approximate
Thu 03:32:55 PM 40.7425 -74.3592 251° West 276 318 9,300  Level New York Center
Thu 03:33:00 PM 40.5031 -74.7074 246° West  Level FlightAware Approximate
Thu 03:33:55 PM 40.7231 -74.4456 253° West 276 318 11,200  Level New York Center
Thu 03:34:00 PM 40.4658 -74.8193 246° West  Level FlightAware Approximate
Thu 03:34:55 PM 40.7033 -74.5486 256° West 276 318 13,400  Level New York Center
Thu 03:35:55 PM 40.6753 -74.6375 247° West 271 312 15,500 1,300 Climbing New York Center
Thu 03:36:55 PM 40.5961 -74.6411 182° South 237 273 16,000 250 Climbing New York Center
Thu 03:37:55 PM 40.5336 -74.7003 216° Southwest 267 307 16,000 50 Level New York Center
Thu 03:38:55 PM 40.4956 -74.7828 239° Southwest 287 330 16,100 500 Climbing New York Center
Thu 03:39:55 PM 40.4544 -74.8867 243° Southwest 317 365 17,000 950 Climbing New York Center
Thu 03:40:55 PM 40.4092 -74.9878 240° Southwest 329 379 18,000 850 Climbing New York Center
Thu 03:41:55 PM 40.3389 -75.0842 226° Southwest 335 386 18,700 850 Climbing New York Center
Thu 03:42:55 PM 40.2772 -75.1756 229° Southwest 344 396 19,700 1,000 Climbing New York Center
Thu 03:43:55 PM 40.2114 -75.2664 227° Southwest 344 396 20,700 1,000 Climbing New York Center
Thu 03:44:55 PM 40.1472 -75.3575 227° Southwest 349 402 21,700 1,000 Climbing New York Center
Thu 03:45:55 PM 40.0811 -75.4508 227° Southwest 349 402 22,700 1,000 Climbing New York Center
Thu 03:46:55 PM 40.0169 -75.5411 227° Southwest 349 402 23,700 1,050 Climbing New York Center
Thu 03:47:55 PM 39.9486 -75.6314 225° Southwest 349 402 24,800 1,050 Climbing New York Center
Thu 03:48:55 PM 39.8908 -75.7219 230° Southwest 349 402 25,800 1,000 Climbing New York Center
Thu 03:49:55 PM 39.8325 -75.8153 231° Southwest 344 396 26,800 1,050 Climbing New York Center
Thu 03:50:55 PM 39.7767 -75.9058 231° Southwest 339 390 27,900 1,350 Climbing New York Center
Thu 03:51:55 PM 39.7208 -75.9881 229° Southwest 327 376 29,500 1,611 Climbing New York Center
Thu 03:54:05 PM 39.6228 -76.1492 232° Southwest 275 316 33,000 1,508 Climbing Washington Center
Thu 03:55:06 PM 39.5786 -76.2189 231° Southwest 260 299 34,300 1,240 Climbing Washington Center
Thu 03:56:06 PM 39.5344 -76.2803 227° Southwest 249 287 35,500 850 Climbing Washington Center
Thu 03:57:06 PM 39.4986 -76.3419 233° Southwest 231 266 36,000 203 Climbing Washington Center
Thu 03:58:04 PM 39.4544 -76.4058 228° Southwest 231 266 35,900  Descending Washington Center
Thu 03:59:05 PM 39.4125 -76.4753 232° Southwest 238 274 36,000 50 Climbing Washington Center
Thu 04:00:05 PM 39.3597 -76.5472 227° Southwest 257 296 36,000  Level Washington Center
Thu 04:01:05 PM 39.3175 -76.6192 233° Southwest 262 302 36,000  Level Washington Center
Thu 04:02:06 PM 39.2731 -76.6828 228° Southwest 252 290 36,000  Level Washington Center
Thu 04:03:07 PM 39.2289 -76.7517 230° Southwest 252 290 36,000  Level Washington Center
Thu 04:04:04 PM 39.1844 -76.8206 230° Southwest 252 290 36,000  Level Washington Center
Thu 04:05:04 PM 39.1378 -76.8975 232° Southwest 257 296 36,000  Level Washington Center
Thu 04:06:05 PM 39.0867 -76.9742 229° Southwest 268 308 36,000  Level Washington Center
Thu 04:07:06 PM 39.0339 -77.0506 228° Southwest 279 321 36,000  Level Washington Center
Thu 04:08:06 PM 38.9703 -77.1189 220° Southwest 291 335 36,000  Level Washington Center
Thu 04:09:04 PM 38.9133 -77.1817 221° Southwest 302 348 36,000  Level Washington Center
Thu 04:10:05 PM 38.8436 -77.2575 220° Southwest 307 353 36,000  Level Washington Center
Thu 04:11:06 PM 38.7906 -77.3147 220° Southwest 302 348 36,000  Level Washington Center
Thu 04:12:04 PM 38.7311 -77.3800 221° Southwest 291 335 36,000  Level Washington Center
Thu 04:13:04 PM 38.6719 -77.4450 221° Southwest 291 335 36,000  Level Washington Center
Thu 04:14:05 PM 38.6103 -77.5125 221° Southwest 291 335 36,000  Level Washington Center
Thu 04:15:06 PM 38.5508 -77.5800 222° Southwest 291 335 36,000  Level Washington Center
Thu 04:16:04 PM 38.4850 -77.6472 219° Southwest 296 341 36,000  Level Washington Center
Thu 04:17:05 PM 38.4256 -77.7172 223° Southwest 296 341 36,000  Level Washington Center
Thu 04:18:06 PM 38.3597 -77.7842 219° Southwest 296 341 36,000  Level Washington Center
Thu 04:19:04 PM 38.2958 -77.8511 219° Southwest 296 341 36,000  Level Washington Center
Thu 04:20:04 PM 38.2319 -77.9206 221° Southwest 296 341 36,000  Level Washington Center
Thu 04:21:05 PM 38.1703 -77.9847 219° Southwest 296 341 36,000  Level Washington Center
Thu 04:22:05 PM 38.1106 -78.0514 221° Southwest 291 335 36,000  Level Washington Center
Thu 04:23:04 PM 38.0508 -78.1153 220° Southwest 291 335 36,000  Level Washington Center
Thu 04:24:05 PM 37.9908 -78.1950 226° Southwest 285 328 36,000  Level Washington Center
Thu 04:25:06 PM 37.9369 -78.2722 229° Southwest 290 334 36,000  Level Washington Center
Thu 04:26:06 PM 37.8875 -78.3386 227° Southwest 298 343 36,000  Level Washington Center
Thu 04:27:04 PM 37.8333 -78.4183 229° Southwest 303 349 36,000  Level Washington Center
Thu 04:28:04 PM 37.7794 -78.4978 229° Southwest 303 349 36,000  Level Washington Center
Thu 04:29:05 PM 37.7231 -78.5769 228° Southwest 308 354 36,000  Level Washington Center
Thu 04:30:07 PM 37.6606 -78.6636 228° Southwest 308 354 36,000  Level Washington Center
Thu 04:31:04 PM 37.6064 -78.7428 229° Southwest 308 354 36,000  Level Washington Center
Thu 04:32:06 PM 37.5522 -78.8192 228° Southwest 308 354 36,000  Level Washington Center
Thu 04:33:04 PM 37.4958 -78.8978 228° Southwest 308 354 36,000  Level Washington Center
Thu 04:34:04 PM 37.4392 -78.9792 229° Southwest 308 354 36,000  Level Washington Center
Thu 04:35:05 PM 37.3872 -79.0475 226° Southwest 308 354 36,000  Level Washington Center
Thu 04:36:06 PM 37.3306 -79.1283 229° Southwest 308 354 36,000  Level Washington Center
Thu 04:37:04 PM 37.2742 -79.2067 228° Southwest 308 354 36,000 -203 Level Washington Center
Thu 04:38:04 PM 37.2172 -79.2875 229° Southwest 308 354 35,600 -694 Descending Washington Center
Thu 04:39:05 PM 37.1647 -79.3708 232° Southwest 308 354 34,600 -1,091 Descending Washington Center
Thu 04:40:05 PM 37.1078 -79.4514 228° Southwest 308 354 33,400 -1,289 Descending Washington Center
Thu 04:41:06 PM 37.0442 -79.5472 230° Southwest 318 366 32,000 -694 Descending Washington Center
Thu 04:42:06 PM 36.9850 -79.6353 230° Southwest 325 374 32,000  Level Washington Center
Thu 04:43:04 PM 36.9256 -79.7231 230° Southwest 330 380 32,000 -398 Level Washington Center
Thu 04:45:22 PM 36.7900 -79.9175 229° Southwest 335 386 30,700 -1,030 Descending Atlanta Center
Thu 04:46:22 PM 36.7183 -80.0222 230° Southwest 376 433 28,600 -1,350 Descending Atlanta Center
Thu 04:47:22 PM 36.6525 -80.1186 230° Southwest 371 427 28,000 -300 Descending Atlanta Center
Thu 04:48:22 PM 36.5889 -80.2097 229° Southwest 344 396 28,000  Level Atlanta Center
Thu 04:49:22 PM 36.5142 -80.2906 221° Southwest 344 396 28,000 -600 Level Atlanta Center
Thu 04:50:22 PM 36.4211 -80.3183 194° South 357 411 26,800 -1,250 Descending Atlanta Center
Thu 04:51:22 PM 36.3200 -80.3564 197° South 372 428 25,500 -1,450 Descending Atlanta Center
Thu 04:52:22 PM 36.2147 -80.3922 195° South 386 444 23,900 -1,600 Descending Atlanta Center
Thu 04:53:22 PM 36.1094 -80.4278 195° South 391 450 22,300 -1,600 Descending Atlanta Center
Thu 04:54:22 PM 36.0064 -80.4658 197° South 391 450 20,700 -1,150 Descending Atlanta Center
Thu 04:55:22 PM 35.9072 -80.5008 196° South 386 444 20,000 -433 Descending Atlanta Center
Thu 04:55:59 PM 35.8453 -80.5239 197° South 355 409 20,000  Level Atlanta Center
Thu 04:56:22 PM 35.8142 -80.5331 193° South 368 423 20,000  Level Atlanta Center
Thu 04:57:22 PM 35.7306 -80.5981 212° Southwest 348 400 20,000  Level Atlanta Center
Thu 04:57:37 PM 35.7108 -80.6397 240° Southwest 378 435 20,000  Level Atlanta Center
Thu 04:58:22 PM 35.6731 -80.7053 235° Southwest 353 406 20,000  Level Atlanta Center
Thu 04:58:44 PM 35.6494 -80.7572 241° Southwest 390 449 20,000 -700 Level Atlanta Center
Thu 04:59:22 PM 35.6156 -80.8175 235° Southwest 369 425 19,300 -1,701 Descending Atlanta Center
Thu 04:59:51 PM 35.5817 -80.8853 238° Southwest 387 445 18,100 -2,000 Descending Atlanta Center
Thu 05:00:22 PM 35.5578 -80.9269 235° Southwest 383 441 17,300 -2,073 Descending Atlanta Center
Thu 05:00:46 PM 35.5322 -80.9839 241° Southwest 371 427 16,200 -2,300 Descending Atlanta Center
Thu 05:01:22 PM 35.5003 -81.0414 236° Southwest 383 441 15,000 -2,361 Descending Atlanta Center
Thu 05:01:47 PM 35.4761 -81.0881 238° Southwest 362 417 13,800 -2,000 Descending Atlanta Center
Thu 05:02:22 PM 35.4464 -81.1453 237° Southwest 373 429 13,000 -787 Descending Atlanta Center
Thu 05:02:48 PM 35.4244 -81.1894 239° Southwest 349 402 13,000  Level Atlanta Center
Thu 05:03:22 PM 35.3944 -81.2464 237° Southwest 368 423 13,000  Level Atlanta Center
Thu 05:03:49 PM 35.3683 -81.2958 237° Southwest 353 406 13,000 -500 Level Atlanta Center
Thu 05:04:22 PM 35.3403 -81.3475 236° Southwest 363 418 12,500 -1,355 Descending Atlanta Center
Thu 05:05:22 PM 35.2864 -81.4536 238° Southwest 363 418 10,900 -1,600 Descending Atlanta Center
Thu 05:07:00 PM 35.2078 -81.5868 234° Southwest  Level FlightAware Approximate
Thu 05:14:00 PM 34.9056 -82.1832 231° Southwest  Level FlightAware Approximate
Thu 05:15:00 PM 34.8833 -82.2167 231° Southwest  Level FlightAware Approximate
Thu 05:16:00 PM 34.8957 -82.2189 231° Southwest  Level Estimated
Thu 05:17:00 PM 34.8957 -82.2189 231° Southwest  Level Estimated
Thu 05:18:00 PM 34.8957 -82.2189 231° Southwest  Level Estimated
Thu 05:19:00 PM 34.8957 -82.2189 231° Southwest  Level Estimated
Thu 05:20:00 PM 34.8957 -82.2189 231° Southwest  Level Estimated
Thu 05:21:00 PM 34.8957 -82.2189 231° Southwest  Level Estimated
Thu 05:22:00 PM 34.8957 -82.2189 231° Southwest  Level Estimated

Login

Don't have an account? Register now (free) for customized features, flight alerts, and more!